Latest Coastal Weather Observations for Devonport Airport

IDT60701

Issued at 11:12 am EST Thursday 27 April 2017 (issued every 10 minutes, with the page automatically refreshed every 10 minutes)

About coastal observations | Map of coastal stations | Coastal observations for TAS | Marine services | Other Formats
Station Details ID: 091126 Name: DEVONPORT AIRPORT Lat: -41.17 Lon: 146.43 Height: 8.0 m
Data from the previous 72 hours. | See also: Recent months at Devonport Airport
Date/Time
EST
Temp
°C
Wind Pressure Rain since
9am
mm
Weather Cloud Vis
km
Sea
Height
m
Swell
Dir  Spd
kts
Gust
kts
hPa Trend Height
m
Period
s
Dir
27/11:00am 11.8 WSW 8 12 1020.7 - 0.0 - - 10 - - - -
27/10:30am 11.3 W 8 10 1020.6 - 0.0 - - 10 - - - -
27/10:00am 9.9 SW 9 10 1020.8 - 0.0 - - 10 - - - -
27/09:30am 8.4 SSW 7 10 1020.9 - 0.0 - - 10 - - - -
27/09:00am 5.7 SSW 4 6 1021.1 - 0.0 - - 10 - - - -
27/08:30am 5.9 SSW 4 6 1021.1 - 0.0 - - 10 - - - -
27/08:00am 4.9 S 6 8 1020.9 - 0.0 - - 10 - - - -
27/07:30am 3.4 SSE 7 8 1020.6 - 0.0 - - 10 - - - -
27/07:00am 2.3 SSE 6 8 1020.6 - 0.0 - - 10 - - - -
27/06:30am 2.6 S 4 6 1020.3 - 0.0 - - 10 - - - -
27/06:00am 2.9 S 7 9 1020.0 - 0.0 - - 10 - - - -
27/05:30am 2.8 S 6 8 1019.9 - 0.0 - - 10 - - - -
27/05:00am 2.6 SSE 6 7 1019.5 - 0.0 - - 10 - - - -
27/04:30am 2.7 S 7 7 1019.1 - 0.0 - - 10 - - - -
27/04:00am 2.6 S 7 8 1018.9 - 0.0 - - 10 - - - -
27/03:30am 3.5 S 5 7 1018.6 - 0.0 - - 10 - - - -
27/03:00am 3.5 SE 6 7 1018.9 - 0.0 - - 10 - - - -
27/02:30am 3.5 S 4 5 1019.1 - 0.0 - - 10 - - - -
27/02:00am 3.2 SSE 2 4 1019.1 - 0.0 - - 10 - - - -
27/01:30am 3.3 SE 6 7 1018.8 - 0.0 - - 10 - - - -
27/01:00am 4.1 S 5 5 1018.7 - 0.0 - - 10 - - - -
27/12:30am 4.2 SSE 6 7 1018.3 - 0.0 - - 10 - - - -
27/12:00am 4.6 SSE 5 6 1018.2 - 0.0 - - 10 - - - -
 
Date/Time
EST
Temp
°C
Wind Pressure Rain since
9am
mm
Weather Cloud Vis
km
Sea
Height
m
Swell
Dir  Spd
kts
Gust
kts
hPa Trend Height
m
Period
s
Dir
26/11:30pm 4.1 SSE 5 7 1018.0 - 0.0 - - 10 - - - -
26/11:00pm 4.2 SSE 6 9 1017.6 - 0.0 - - 10 - - - -
26/10:30pm 5.3 S 6 7 1017.6 - 0.0 - - 10 - - - -
26/10:00pm 5.8 SSW 5 7 1017.4 - 0.0 - - 10 - - - -
26/09:30pm 5.4 SE 5 6 1017.3 - 0.0 - - 10 - - - -
26/09:00pm 5.4 ESE 3 4 1016.8 - 0.0 - - 10 - - - -
26/08:30pm 6.0 S 7 9 1016.1 - 0.0 - - 10 - - - -
26/08:00pm 6.5 S 7 9 1015.5 - 0.0 - - 10 - - - -
26/07:30pm 6.4 S 8 10 1015.1 - 0.0 - - 10 - - - -
26/07:00pm 6.6 S 7 8 1014.5 - 0.0 - - 10 - - - -
26/06:30pm 8.4 S 9 12 1013.8 - 0.0 - - 10 - - - -
26/06:00pm 9.0 SSW 6 10 1013.0 - 0.0 - - 10 - - - -
26/05:30pm 10.0 SSW 5 8 1012.5 - 0.0 - - 10 - - - -
26/05:00pm 11.2 SW 7 10 1011.7 - 0.0 - - 10 - - - -
26/04:30pm 11.7 SSW 9 12 1011.0 - 0.0 - - 10 - - - -
26/04:00pm 12.3 SSW 9 13 1010.4 - 0.0 - Partly cloudy 10 - - - -
26/03:30pm 13.1 SW 7 13 1009.8 - 0.0 - Partly cloudy 10 - - - -
26/03:00pm 14.0 SSW 7 12 1009.3 - 0.0 - - 10 - - - -
26/02:30pm 13.9 SSW 8 12 1008.9 - 0.0 - - 10 - - - -
26/02:00pm 14.0 S 11 16 1008.5 - 0.0 - - 10 - - - -
26/01:30pm 13.6 SSW 11 16 1008.4 - 0.0 - - 10 - - - -
26/01:00pm 13.6 SSW 10 14 1008.2 - 0.0 - - 10 - - - -
26/12:30pm 13.5 S 14 20 1008.1 - 0.0 - Partly cloudy 10 - - - -
26/12:00pm 12.4 S 11 15 1008.0 - 0.0 - Cloudy 10 - - - -
26/11:30am 13.3 SSW 9 17 1007.8 - 0.0 - Partly cloudy 10 - - - -
26/11:00am 13.4 SSW 8 13 1007.7 - 0.0 - Partly cloudy 10 - - - -
26/10:30am 12.2 SSW 9 14 1007.3 - 0.0 - Partly cloudy 10 - - - -
26/10:00am 11.6 SSW 11 18 1006.9 - 0.0 - Cloudy 10 - - - -
26/09:30am 11.9 SSW 10 15 1006.7 - 0.0 - Cloudy 10 - - - -
26/09:00am 11.7 SW 12 17 1006.3 - 1.4 - Mostly clear 10 - - - -
26/08:30am 11.1 SW 11 16 1005.6 - 1.4 - Partly cloudy 10 - - - -
26/08:00am 10.2 SSW 5 8 1004.8 - 1.4 - Partly cloudy 10 - - - -
26/07:30am 9.5 SSW 5 8 1004.1 - 1.4 - Partly cloudy 10 - - - -
26/07:00am 9.9 SSW 6 7 1003.2 - 1.4 - Cloudy 10 - - - -
26/06:30am 10.1 S 4 5 1003.0 - 1.4 - Cloudy 10 - - - -
26/06:00am 10.3 SW 6 9 1002.6 - 1.4 - Cloudy 10 - - - -
26/05:30am 10.1 SW 5 7 1002.0 - 1.4 - Cloudy 10 - - - -
26/05:00am 10.0 SW 5 7 1001.4 - 1.4 - Cloudy 10 - - - -
26/04:30am 10.1 SW 4 6 1000.7 - 1.4 - Cloudy 10 - - - -
26/04:00am 10.2 S 3 5 1000.0 - 1.4 - Partly cloudy 10 - - - -
26/03:30am 10.1 SSE 6 7 999.8 - 1.4 - Partly cloudy 10 - - - -
26/03:00am 10.0 WSW 7 9 1000.0 - 1.4 - Cloudy 10 - - - -
26/02:30am 10.1 SSE 5 7 999.7 - 1.4 - Partly cloudy 10 - - - -
26/02:00am 10.2 S 6 7 999.7 - 1.4 - Cloudy 10 - - - -
26/01:30am 10.8 S 4 5 999.5 - 1.4 - Partly cloudy 10 - - - -
26/01:00am 11.2 SW 4 5 999.9 - 1.4 - Partly cloudy 10 - - - -
26/12:30am 11.2 S 4 5 999.9 - 1.2 - Cloudy 10 - - - -
26/12:10am 11.4 S 5 6 1000.0 - 1.2 - Partly cloudy 10 - - - -
26/12:00am 11.5 S 5 6 1000.2 - 1.2 Showers Cloudy 10 - - - -
 
Date/Time
EST
Temp
°C
Wind Pressure Rain since
9am
mm
Weather Cloud Vis
km
Sea
Height
m
Swell
Dir  Spd
kts
Gust
kts
hPa Trend Height
m
Period
s
Dir
25/11:49pm 11.4 SSW 3 6 1000.3 - 1.2 - Partly cloudy 10 - - - -
25/11:30pm 11.3 WSW 3 4 1000.6 - 1.2 - Partly cloudy 10 - - - -
25/11:00pm 11.2 WSW 6 7 1001.0 - 1.0 - Partly cloudy 7 - - - -
25/10:30pm 11.3 S 5 5 1000.8 - 0.2 - Partly cloudy 10 - - - -
25/10:00pm 11.1 CALM 0 0 1001.3 - 0.2 - Partly cloudy 10 - - - -
25/09:30pm 11.1 SSW 3 4 1001.6 - 0.2 - Partly cloudy 10 - - - -
25/09:00pm 11.8 SW 4 5 1001.8 - 0.2 Rain Partly cloudy 10 - - - -
25/08:30pm 11.0 WSW 7 9 1002.1 - 0.0 - - 10 - - - -
25/08:00pm 10.7 WSW 9 10 1002.3 - 0.0 - - 10 - - - -
25/07:30pm 12.1 W 9 10 1002.3 - 0.0 - - 10 - - - -
25/07:00pm 12.9 W 9 12 1002.1 - 0.0 - - 10 - - - -
25/06:30pm 13.7 W 12 15 1002.1 - 0.0 - - 10 - - - -
25/06:00pm 14.3 W 11 16 1001.8 - 0.0 - - 10 - - - -
25/05:30pm 15.7 WNW 15 20 1001.5 - 0.0 - Partly cloudy 10 - - - -
25/05:00pm 15.7 W 10 12 1001.5 - 0.0 - - 10 - - - -
25/04:30pm 16.7 W 14 17 1001.6 - 0.0 - - 10 - - - -
25/04:00pm 17.6 SW 11 16 1001.7 - 0.0 - Partly cloudy 10 - - - -
25/03:30pm 18.0 W 13 19 1001.6 - 0.0 - Partly cloudy 10 - - - -
25/03:00pm 17.7 W 15 21 1001.6 - 0.0 - Partly cloudy 10 - - - -
25/02:30pm 17.3 W 15 18 1001.8 - 0.0 - - 10 - - - -
25/02:00pm 17.1 W 16 19 1002.0 - 0.0 - Partly cloudy 10 - - - -
25/01:30pm 18.1 W 10 15 1002.2 - 0.0 - Partly cloudy 10 - - - -
25/01:00pm 17.8 WNW 9 11 1002.6 - 0.0 - - 10 - - - -
25/12:30pm 17.4 WSW 8 13 1003.0 - 0.0 - - 10 - - - -
25/12:00pm 16.5 WNW 10 13 1003.6 - 0.0 - Mostly cloudy 10 - - - -
25/11:30am 16.8 W 6 10 1004.0 - 0.0 - - 10 - - - -
25/11:00am 15.2 WNW 6 7 1004.6 - 0.0 - Partly cloudy 10 - - - -
25/10:30am 15.2 W 5 7 1004.8 - 0.0 - Partly cloudy 10 - - - -
25/10:00am 14.4 WSW 3 5 1005.2 - 0.0 - Partly cloudy 10 - - - -
25/09:30am 14.2 SSW 3 4 1005.5 - 0.0 - Partly cloudy 10 - - - -
25/09:00am 14.0 SE 4 5 1005.9 - 19.0 Showers Cloudy 10 - - - -
25/08:30am 13.9 SW 1 4 1006.3 - 19.0 - Cloudy 10 - - - -
25/08:16am 13.8 SW 3 3 1006.6 - 19.0 - Partly cloudy 7 - - - -
25/08:00am 13.6 SW 3 4 1006.6 - 19.0 - Cloudy 5 - - - -
25/07:33am 13.7 SW 2 4 1006.5 - 18.6 - Partly cloudy 5 - - - -
25/07:30am 13.7 SW 3 4 1006.6 - 18.6 - Partly cloudy 5 - - - -
25/07:02am 13.9 SW 7 8 1006.7 - 17.0 - Partly cloudy 6 - - - -
25/07:00am 14.0 SSW 7 8 1006.6 - 16.8 - Cloudy 7 - - - -
25/06:30am 14.2 S 5 6 1006.7 - 16.8 - Partly cloudy 9 - - - -
25/06:00am 14.4 S 4 5 1006.8 - 16.8 - Cloudy 10 - - - -
25/05:30am 14.4 S 3 4 1007.2 - 16.8 - Partly cloudy 10 - - - -
25/05:00am 14.5 S 4 4 1007.2 - 16.8 - Partly cloudy 10 - - - -
25/04:48am 14.5 SSW 3 4 1007.3 - 16.8 - Partly cloudy 10 - - - -
25/04:30am 14.5 SW 3 4 1007.4 - 16.8 - Partly cloudy 10 - - - -
25/04:19am 14.7 WNW 2 3 1007.5 - 16.6 - Partly cloudy 10 - - - -
25/04:00am 14.7 NW 3 6 1007.9 - 16.6 - Partly cloudy 10 - - - -
25/03:47am 14.6 SE 3 4 1008.2 - 16.4 - Partly cloudy 10 - - - -
25/03:31am 14.6 ESE 2 4 1008.5 - 15.8 - Partly cloudy 6 - - - -
25/03:30am 14.6 ESE 2 4 1008.5 - 15.8 - Partly cloudy 7 - - - -
25/03:00am 14.5 SSE 5 5 1008.8 - 14.2 Rain Cloudy 10 - - - -
25/02:30am 14.9 CALM 0 0 1009.5 - 12.8 - Partly cloudy 10 - - - -
25/02:00am 15.2 WNW 5 6 1010.1 - 11.8 - Partly cloudy 10 - - - -
25/01:30am 15.5 NW 6 7 1010.7 - 11.0 - Partly cloudy 10 - - - -
25/01:00am 15.3 NNW 5 7 1011.0 - 10.2 - Partly cloudy 10 - - - -
25/12:30am 15.6 NNW 8 9 1011.6 - 9.4 - Partly cloudy 10 - - - -
25/12:00am 15.7 NW 7 8 1011.9 - 8.8 Rain Cloudy 10 - - - -
 
Date/Time
EST
Temp
°C
Wind Pressure Rain since
9am
mm
Weather Cloud Vis
km
Sea
Height
m
Swell
Dir  Spd
kts
Gust
kts
hPa Trend Height
m
Period
s
Dir
24/11:54pm 15.8 NW 7 8 1011.9 - 8.6 - Partly cloudy 10 - - - -
24/11:37pm 15.9 NW 7 8 1012.1 - 8.4 - Partly cloudy 10 - - - -
24/11:30pm 15.9 NW 7 8 1012.3 - 8.4 - Partly cloudy 10 - - - -
24/11:04pm 15.9 NW 6 7 1012.7 - 8.2 - Partly cloudy 10 - - - -
24/11:00pm 16.0 NW 6 7 1012.7 - 8.2 - Partly cloudy 10 - - - -
24/10:40pm 16.3 NW 7 9 1013.1 - 8.2 - Partly cloudy 10 - - - -
24/10:30pm 16.2 NW 7 8 1013.2 - 8.2 - Partly cloudy 10 - - - -
24/10:03pm 16.2 WNW 6 8 1013.5 - 8.2 - Partly cloudy 10 - - - -
24/10:00pm 16.3 WNW 7 8 1013.5 - 8.2 - Partly cloudy 10 - - - -
24/09:35pm 16.3 NW 7 9 1013.8 - 8.2 - Partly cloudy 10 - - - -
24/09:30pm 16.3 NW 7 8 1013.7 - 8.2 - Partly cloudy 10 - - - -
24/09:00pm 16.4 NW 7 9 1014.0 - 8.2 - Cloudy 10 - - - -
24/08:30pm 16.6 NW 7 9 1014.3 - 8.2 - Partly cloudy 10 - - - -
24/08:00pm 16.5 NW 7 9 1014.3 - 8.2 - Partly cloudy 10 - - - -
24/07:30pm 16.2 NW 5 6 1014.3 - 8.2 - Partly cloudy 10 - - - -
24/07:27pm 16.1 NW 5 6 1014.4 - 8.2 - Partly cloudy 10 - - - -
24/07:13pm 16.1 NW 6 7 1014.5 - 8.2 - Partly cloudy 10 - - - -
24/07:00pm 15.9 NW 3 5 1014.4 - 8.2 - Partly cloudy 10 - - - -
24/06:30pm 16.1 NW 4 4 1014.3 - 8.2 - Partly cloudy 10 - - - -
24/06:00pm 16.5 NNW 7 8 1014.5 - 8.2 - Cloudy 10 - - - -
24/05:30pm 16.7 NW 7 8 1014.6 - 8.2 - Cloudy 10 - - - -
24/05:00pm 16.8 NW 6 7 1014.8 - 8.2 - Partly cloudy 10 - - - -
24/04:30pm 16.9 NNW 7 9 1015.1 - 8.2 - Partly cloudy 10 - - - -
24/04:00pm 17.0 NW 8 10 1015.2 - 8.2 - Partly cloudy 10 - - - -
24/03:30pm 17.3 NW 8 10 1015.6 - 8.2 - Partly cloudy 10 - - - -
24/03:00pm 17.7 NW 8 12 1015.7 - 8.2 - Cloudy 10 - - - -
24/02:30pm 17.6 NW 8 10 1015.9 - 8.2 - Partly cloudy 10 - - - -
24/02:21pm 17.8 NW 8 10 1015.9 - 8.2 - Partly cloudy 10 - - - -
24/02:00pm 17.9 NW 8 10 1016.1 - 8.2 - Partly cloudy 10 - - - -
24/01:30pm 17.4 NW 7 9 1016.4 - 8.2 - Partly cloudy 10 - - - -
24/01:28pm 17.4 NW 7 9 1016.4 - 8.2 - Partly cloudy 10 - - - -
24/01:00pm 18.3 NNW 9 11 1016.9 - 8.0 - Partly cloudy 10 - - - -
24/12:35pm 18.0 NW 8 10 1017.4 - 8.0 - Partly cloudy 10 - - - -
24/12:31pm 17.8 NW 9 11 1017.4 - 8.0 - Partly cloudy 10 - - - -
24/12:30pm 18.1 NW 9 11 1017.5 - 8.0 - Partly cloudy 10 - - - -
24/12:15pm 17.3 NNE 8 11 1017.7 - 8.0 - Partly cloudy 5 - - - -
24/12:00pm 17.5 NNE 9 11 1017.9 - 8.0 - Cloudy 10 - - - -
24/11:30am 16.5 NE 14 19 1018.6 - 8.0 - Cloudy 10 - - - -

Other Formats:

Comma delimited format used in spreadsheet applications
http://www.bom.gov.au/fwo/IDT60701/IDT60701.95960.axf

JavaScript Object Notation format (JSON) in row-major order
http://www.bom.gov.au/fwo/IDT60701/IDT60701.95960.json